sensor_id;sensor_type;location;lat;lon;timestamp;P1;durP1;ratioP1;P2;durP2;ratioP2
74939;SDS011;63505;45.226;37.908;2023-05-16T00:00:06;21.63;;;12.98;;
74939;SDS011;63505;45.226;37.908;2023-05-16T00:02:34;20.90;;;11.80;;
74939;SDS011;63505;45.226;37.908;2023-05-16T00:05:02;21.67;;;12.48;;
74939;SDS011;63505;45.226;37.908;2023-05-16T00:07:54;20.20;;;11.25;;
74939;SDS011;63505;45.226;37.908;2023-05-16T00:10:20;20.42;;;11.95;;
74939;SDS011;63505;45.226;37.908;2023-05-16T00:12:46;24.48;;;12.38;;
74939;SDS011;63505;45.226;37.908;2023-05-16T00:15:16;18.02;;;11.23;;
74939;SDS011;63505;45.226;37.908;2023-05-16T00:17:42;26.55;;;13.65;;
74939;SDS011;63505;45.226;37.908;2023-05-16T00:20:14;27.45;;;14.25;;
74939;SDS011;63505;45.226;37.908;2023-05-16T00:22:42;30.58;;;13.32;;
74939;SDS011;63505;45.226;37.908;2023-05-16T00:25:08;28.60;;;13.07;;
74939;SDS011;63505;45.226;37.908;2023-05-16T00:27:34;21.58;;;13.45;;
74939;SDS011;63505;45.226;37.908;2023-05-16T00:30:01;18.85;;;12.43;;
74939;SDS011;63505;45.226;37.908;2023-05-16T00:32:27;21.77;;;12.23;;
74939;SDS011;63505;45.226;37.908;2023-05-16T00:34:53;22.55;;;13.10;;
74939;SDS011;63505;45.226;37.908;2023-05-16T00:37:19;18.20;;;12.35;;
74939;SDS011;63505;45.226;37.908;2023-05-16T00:39:45;21.90;;;11.82;;
74939;SDS011;63505;45.226;37.908;2023-05-16T00:42:11;18.40;;;11.02;;
74939;SDS011;63505;45.226;37.908;2023-05-16T00:44:37;20.42;;;11.35;;
74939;SDS011;63505;45.226;37.908;2023-05-16T00:47:03;20.88;;;11.68;;
74939;SDS011;63505;45.226;37.908;2023-05-16T00:49:29;27.90;;;13.10;;
74939;SDS011;63505;45.226;37.908;2023-05-16T00:51:56;20.00;;;12.02;;
74939;SDS011;63505;45.226;37.908;2023-05-16T00:54:23;20.17;;;11.70;;
74939;SDS011;63505;45.226;37.908;2023-05-16T00:56:53;21.98;;;13.10;;
74939;SDS011;63505;45.226;37.908;2023-05-16T00:59:20;17.63;;;11.50;;
74939;SDS011;63505;45.226;37.908;2023-05-16T01:01:46;18.10;;;11.18;;
74939;SDS011;63505;45.226;37.908;2023-05-16T01:04:13;23.08;;;11.27;;
74939;SDS011;63505;45.226;37.908;2023-05-16T01:06:39;22.08;;;11.95;;
74939;SDS011;63505;45.226;37.908;2023-05-16T01:09:05;26.58;;;14.02;;
74939;SDS011;63505;45.226;37.908;2023-05-16T01:17:16;33.83;;;14.50;;
74939;SDS011;63505;45.226;37.908;2023-05-16T01:28:40;57.78;;;22.33;;
74939;SDS011;63505;45.226;37.908;2023-05-16T01:31:07;61.05;;;21.63;;
74939;SDS011;63505;45.226;37.908;2023-05-16T01:33:33;35.08;;;15.70;;
74939;SDS011;63505;45.226;37.908;2023-05-16T01:38:38;23.83;;;12.82;;
74939;SDS011;63505;45.226;37.908;2023-05-16T01:41:33;15.48;;;10.13;;
74939;SDS011;63505;45.226;37.908;2023-05-16T01:43:59;23.20;;;11.25;;
74939;SDS011;63505;45.226;37.908;2023-05-16T01:46:30;18.92;;;10.52;;
74939;SDS011;63505;45.226;37.908;2023-05-16T01:52:00;23.85;;;11.73;;
74939;SDS011;63505;45.226;37.908;2023-05-16T01:54:30;18.67;;;10.15;;
74939;SDS011;63505;45.226;37.908;2023-05-16T01:56:57;20.38;;;10.02;;
74939;SDS011;63505;45.226;37.908;2023-05-16T01:59:25;24.92;;;11.43;;
74939;SDS011;63505;45.226;37.908;2023-05-16T02:01:53;19.85;;;9.75;;
74939;SDS011;63505;45.226;37.908;2023-05-16T02:04:21;23.15;;;9.85;;
74939;SDS011;63505;45.226;37.908;2023-05-16T02:06:48;25.55;;;11.10;;
74939;SDS011;63505;45.226;37.908;2023-05-16T02:09:15;23.48;;;10.93;;
74939;SDS011;63505;45.226;37.908;2023-05-16T02:11:41;20.50;;;11.20;;
74939;SDS011;63505;45.226;37.908;2023-05-16T02:14:07;19.67;;;9.73;;
74939;SDS011;63505;45.226;37.908;2023-05-16T02:16:34;34.10;;;12.57;;
74939;SDS011;63505;45.226;37.908;2023-05-16T02:19:01;27.15;;;11.05;;
74939;SDS011;63505;45.226;37.908;2023-05-16T02:21:27;21.15;;;9.73;;
74939;SDS011;63505;45.226;37.908;2023-05-16T02:23:53;21.60;;;10.48;;
74939;SDS011;63505;45.226;37.908;2023-05-16T02:26:19;23.40;;;9.48;;
74939;SDS011;63505;45.226;37.908;2023-05-16T02:28:45;17.00;;;9.60;;
74939;SDS011;63505;45.226;37.908;2023-05-16T02:31:11;19.33;;;10.10;;
74939;SDS011;63505;45.226;37.908;2023-05-16T02:33:37;24.92;;;10.07;;
74939;SDS011;63505;45.226;37.908;2023-05-16T02:36:03;17.00;;;8.32;;
74939;SDS011;63505;45.226;37.908;2023-05-16T02:38:29;20.15;;;9.65;;
74939;SDS011;63505;45.226;37.908;2023-05-16T02:40:55;15.90;;;8.65;;
74939;SDS011;63505;45.226;37.908;2023-05-16T02:43:21;15.85;;;8.57;;
74939;SDS011;63505;45.226;37.908;2023-05-16T02:45:47;17.40;;;8.73;;
74939;SDS011;63505;45.226;37.908;2023-05-16T02:48:15;18.52;;;8.30;;
74939;SDS011;63505;45.226;37.908;2023-05-16T02:50:41;15.25;;;9.88;;
74939;SDS011;63505;45.226;37.908;2023-05-16T02:53:07;16.45;;;8.73;;
74939;SDS011;63505;45.226;37.908;2023-05-16T02:55:33;16.60;;;8.20;;
74939;SDS011;63505;45.226;37.908;2023-05-16T02:57:58;19.88;;;9.88;;
74939;SDS011;63505;45.226;37.908;2023-05-16T03:00:24;21.02;;;13.48;;
74939;SDS011;63505;45.226;37.908;2023-05-16T03:02:51;21.98;;;13.73;;
74939;SDS011;63505;45.226;37.908;2023-05-16T03:05:16;29.08;;;19.15;;
74939;SDS011;63505;45.226;37.908;2023-05-16T03:07:43;34.80;;;21.98;;
74939;SDS011;63505;45.226;37.908;2023-05-16T03:10:09;35.65;;;23.00;;
74939;SDS011;63505;45.226;37.908;2023-05-16T03:12:37;41.72;;;23.70;;
74939;SDS011;63505;45.226;37.908;2023-05-16T03:15:02;28.58;;;15.82;;
74939;SDS011;63505;45.226;37.908;2023-05-16T03:17:29;24.20;;;15.02;;
74939;SDS011;63505;45.226;37.908;2023-05-16T03:19:55;26.90;;;17.55;;
74939;SDS011;63505;45.226;37.908;2023-05-16T03:22:21;25.35;;;13.85;;
74939;SDS011;63505;45.226;37.908;2023-05-16T03:24:47;19.80;;;11.57;;
74939;SDS011;63505;45.226;37.908;2023-05-16T03:27:13;16.88;;;10.95;;
74939;SDS011;63505;45.226;37.908;2023-05-16T03:29:39;18.75;;;10.85;;
74939;SDS011;63505;45.226;37.908;2023-05-16T03:32:05;19.52;;;11.52;;
74939;SDS011;63505;45.226;37.908;2023-05-16T03:34:30;18.08;;;11.77;;
74939;SDS011;63505;45.226;37.908;2023-05-16T03:36:56;23.50;;;15.10;;
74939;SDS011;63505;45.226;37.908;2023-05-16T03:39:22;22.67;;;13.20;;
74939;SDS011;63505;45.226;37.908;2023-05-16T03:41:48;23.10;;;14.30;;
74939;SDS011;63505;45.226;37.908;2023-05-16T03:44:14;24.10;;;15.18;;
74939;SDS011;63505;45.226;37.908;2023-05-16T03:46:40;37.65;;;20.08;;
74939;SDS011;63505;45.226;37.908;2023-05-16T03:49:06;26.10;;;15.88;;
74939;SDS011;63505;45.226;37.908;2023-05-16T03:51:32;23.50;;;15.18;;
74939;SDS011;63505;45.226;37.908;2023-05-16T03:53:58;25.50;;;14.57;;
74939;SDS011;63505;45.226;37.908;2023-05-16T03:56:24;17.90;;;9.90;;
74939;SDS011;63505;45.226;37.908;2023-05-16T03:58:50;21.52;;;9.30;;
74939;SDS011;63505;45.226;37.908;2023-05-16T04:01:16;14.15;;;9.70;;
74939;SDS011;63505;45.226;37.908;2023-05-16T04:03:42;16.27;;;9.50;;
74939;SDS011;63505;45.226;37.908;2023-05-16T04:06:07;13.77;;;9.02;;
74939;SDS011;63505;45.226;37.908;2023-05-16T04:08:33;12.63;;;8.30;;
74939;SDS011;63505;45.226;37.908;2023-05-16T04:10:59;16.67;;;9.32;;
74939;SDS011;63505;45.226;37.908;2023-05-16T04:13:25;15.35;;;8.02;;
74939;SDS011;63505;45.226;37.908;2023-05-16T04:15:51;16.48;;;8.75;;
74939;SDS011;63505;45.226;37.908;2023-05-16T04:18:17;11.35;;;5.97;;
74939;SDS011;63505;45.226;37.908;2023-05-16T04:20:43;13.95;;;5.82;;
74939;SDS011;63505;45.226;37.908;2023-05-16T04:23:11;8.75;;;5.75;;
74939;SDS011;63505;45.226;37.908;2023-05-16T04:25:37;16.95;;;5.57;;
74939;SDS011;63505;45.226;37.908;2023-05-16T04:28:03;7.05;;;4.38;;
74939;SDS011;63505;45.226;37.908;2023-05-16T04:30:30;8.30;;;4.47;;
74939;SDS011;63505;45.226;37.908;2023-05-16T04:32:56;8.48;;;4.57;;
74939;SDS011;63505;45.226;37.908;2023-05-16T04:35:24;10.07;;;5.63;;
74939;SDS011;63505;45.226;37.908;2023-05-16T04:37:50;7.75;;;5.05;;
74939;SDS011;63505;45.226;37.908;2023-05-16T04:40:16;11.07;;;4.20;;
74939;SDS011;63505;45.226;37.908;2023-05-16T04:42:42;8.15;;;4.85;;
74939;SDS011;63505;45.226;37.908;2023-05-16T04:45:08;11.63;;;4.65;;
74939;SDS011;63505;45.226;37.908;2023-05-16T04:47:36;9.43;;;5.72;;
74939;SDS011;63505;45.226;37.908;2023-05-16T04:50:03;9.80;;;4.70;;
74939;SDS011;63505;45.226;37.908;2023-05-16T04:52:29;9.60;;;6.07;;
74939;SDS011;63505;45.226;37.908;2023-05-16T04:54:55;11.95;;;5.30;;
74939;SDS011;63505;45.226;37.908;2023-05-16T04:57:21;12.45;;;5.53;;
74939;SDS011;63505;45.226;37.908;2023-05-16T04:59:47;11.82;;;5.72;;
74939;SDS011;63505;45.226;37.908;2023-05-16T05:02:12;8.90;;;6.28;;
74939;SDS011;63505;45.226;37.908;2023-05-16T05:04:38;11.38;;;6.45;;
74939;SDS011;63505;45.226;37.908;2023-05-16T05:07:04;7.95;;;5.20;;
74939;SDS011;63505;45.226;37.908;2023-05-16T05:09:31;15.40;;;6.90;;
74939;SDS011;63505;45.226;37.908;2023-05-16T05:11:56;19.20;;;7.35;;
74939;SDS011;63505;45.226;37.908;2023-05-16T05:14:22;15.63;;;7.15;;
74939;SDS011;63505;45.226;37.908;2023-05-16T05:16:48;9.75;;;5.93;;
74939;SDS011;63505;45.226;37.908;2023-05-16T05:19:14;5.50;;;3.47;;
74939;SDS011;63505;45.226;37.908;2023-05-16T05:21:40;7.22;;;2.65;;
74939;SDS011;63505;45.226;37.908;2023-05-16T05:24:06;6.07;;;2.60;;
74939;SDS011;63505;45.226;37.908;2023-05-16T05:26:31;4.88;;;3.08;;
74939;SDS011;63505;45.226;37.908;2023-05-16T05:28:57;8.38;;;2.45;;
74939;SDS011;63505;45.226;37.908;2023-05-16T05:31:23;4.85;;;1.90;;
74939;SDS011;63505;45.226;37.908;2023-05-16T05:33:49;9.07;;;2.00;;
74939;SDS011;63505;45.226;37.908;2023-05-16T05:36:15;4.43;;;2.08;;
74939;SDS011;63505;45.226;37.908;2023-05-16T05:38:41;6.03;;;2.20;;
74939;SDS011;63505;45.226;37.908;2023-05-16T05:41:07;3.17;;;1.48;;
74939;SDS011;63505;45.226;37.908;2023-05-16T05:43:32;4.32;;;1.90;;
74939;SDS011;63505;45.226;37.908;2023-05-16T05:45:59;6.63;;;2.13;;
74939;SDS011;63505;45.226;37.908;2023-05-16T05:48:25;4.43;;;2.15;;
74939;SDS011;63505;45.226;37.908;2023-05-16T05:50:52;4.45;;;2.45;;
74939;SDS011;63505;45.226;37.908;2023-05-16T05:53:18;3.90;;;1.63;;
74939;SDS011;63505;45.226;37.908;2023-05-16T05:55:44;9.88;;;2.40;;
74939;SDS011;63505;45.226;37.908;2023-05-16T05:58:10;4.20;;;2.35;;
74939;SDS011;63505;45.226;37.908;2023-05-16T06:00:36;3.60;;;1.73;;
74939;SDS011;63505;45.226;37.908;2023-05-16T06:03:02;4.72;;;1.60;;
74939;SDS011;63505;45.226;37.908;2023-05-16T06:05:28;5.43;;;2.65;;
74939;SDS011;63505;45.226;37.908;2023-05-16T06:07:54;5.45;;;3.03;;
74939;SDS011;63505;45.226;37.908;2023-05-16T06:10:20;4.28;;;2.28;;
74939;SDS011;63505;45.226;37.908;2023-05-16T06:12:46;5.20;;;2.28;;
74939;SDS011;63505;45.226;37.908;2023-05-16T06:15:12;5.72;;;2.75;;
74939;SDS011;63505;45.226;37.908;2023-05-16T06:17:38;3.45;;;2.05;;
74939;SDS011;63505;45.226;37.908;2023-05-16T06:20:04;5.10;;;2.60;;
74939;SDS011;63505;45.226;37.908;2023-05-16T06:22:30;3.50;;;2.42;;
74939;SDS011;63505;45.226;37.908;2023-05-16T06:24:56;5.32;;;2.00;;
74939;SDS011;63505;45.226;37.908;2023-05-16T06:27:22;8.30;;;3.03;;
74939;SDS011;63505;45.226;37.908;2023-05-16T06:29:49;8.88;;;2.95;;
74939;SDS011;63505;45.226;37.908;2023-05-16T06:32:15;7.35;;;2.58;;
74939;SDS011;63505;45.226;37.908;2023-05-16T06:34:41;4.68;;;2.67;;
74939;SDS011;63505;45.226;37.908;2023-05-16T06:37:07;5.57;;;2.55;;
74939;SDS011;63505;45.226;37.908;2023-05-16T06:39:33;5.03;;;2.40;;
74939;SDS011;63505;45.226;37.908;2023-05-16T06:41:59;5.15;;;2.53;;
74939;SDS011;63505;45.226;37.908;2023-05-16T06:44:28;6.85;;;2.50;;
74939;SDS011;63505;45.226;37.908;2023-05-16T06:46:54;4.43;;;2.15;;
74939;SDS011;63505;45.226;37.908;2023-05-16T06:49:20;8.80;;;2.20;;
74939;SDS011;63505;45.226;37.908;2023-05-16T06:51:46;3.80;;;1.85;;
74939;SDS011;63505;45.226;37.908;2023-05-16T06:54:12;5.50;;;2.28;;
74939;SDS011;63505;45.226;37.908;2023-05-16T06:56:38;5.75;;;1.98;;
74939;SDS011;63505;45.226;37.908;2023-05-16T06:59:04;4.53;;;2.40;;
74939;SDS011;63505;45.226;37.908;2023-05-16T07:01:29;6.68;;;2.60;;
74939;SDS011;63505;45.226;37.908;2023-05-16T07:03:55;3.83;;;1.65;;
74939;SDS011;63505;45.226;37.908;2023-05-16T07:06:21;3.40;;;1.60;;
74939;SDS011;63505;45.226;37.908;2023-05-16T07:08:47;9.15;;;2.58;;
74939;SDS011;63505;45.226;37.908;2023-05-16T07:11:13;4.22;;;1.85;;
74939;SDS011;63505;45.226;37.908;2023-05-16T07:13:38;3.22;;;2.20;;
74939;SDS011;63505;45.226;37.908;2023-05-16T07:16:04;4.80;;;2.13;;
74939;SDS011;63505;45.226;37.908;2023-05-16T07:18:31;4.53;;;2.45;;
74939;SDS011;63505;45.226;37.908;2023-05-16T07:20:57;7.60;;;2.10;;
74939;SDS011;63505;45.226;37.908;2023-05-16T07:23:23;4.57;;;2.42;;
74939;SDS011;63505;45.226;37.908;2023-05-16T07:25:49;3.00;;;2.00;;
74939;SDS011;63505;45.226;37.908;2023-05-16T07:28:16;5.32;;;2.65;;
74939;SDS011;63505;45.226;37.908;2023-05-16T07:30:42;2.72;;;2.03;;
74939;SDS011;63505;45.226;37.908;2023-05-16T07:33:07;5.65;;;2.33;;
74939;SDS011;63505;45.226;37.908;2023-05-16T07:35:33;4.50;;;2.65;;
74939;SDS011;63505;45.226;37.908;2023-05-16T07:37:59;3.55;;;1.98;;
74939;SDS011;63505;45.226;37.908;2023-05-16T07:40:25;8.30;;;2.63;;
74939;SDS011;63505;45.226;37.908;2023-05-16T07:42:53;6.57;;;2.30;;
74939;SDS011;63505;45.226;37.908;2023-05-16T07:45:19;3.70;;;2.28;;
74939;SDS011;63505;45.226;37.908;2023-05-16T07:47:45;5.72;;;2.63;;
74939;SDS011;63505;45.226;37.908;2023-05-16T07:50:11;10.45;;;2.10;;
74939;SDS011;63505;45.226;37.908;2023-05-16T07:52:37;3.35;;;1.92;;
74939;SDS011;63505;45.226;37.908;2023-05-16T07:55:03;4.20;;;2.42;;
74939;SDS011;63505;45.226;37.908;2023-05-16T07:57:29;3.50;;;2.10;;
74939;SDS011;63505;45.226;37.908;2023-05-16T07:59:55;4.40;;;2.00;;
74939;SDS011;63505;45.226;37.908;2023-05-16T08:02:21;4.90;;;2.22;;
74939;SDS011;63505;45.226;37.908;2023-05-16T08:04:49;4.78;;;2.17;;
74939;SDS011;63505;45.226;37.908;2023-05-16T08:07:15;7.28;;;3.28;;
74939;SDS011;63505;45.226;37.908;2023-05-16T08:09:41;4.28;;;2.30;;
74939;SDS011;63505;45.226;37.908;2023-05-16T08:12:07;4.60;;;2.35;;
74939;SDS011;63505;45.226;37.908;2023-05-16T08:14:33;4.57;;;2.22;;
74939;SDS011;63505;45.226;37.908;2023-05-16T08:17:01;3.85;;;2.28;;
74939;SDS011;63505;45.226;37.908;2023-05-16T08:19:27;3.88;;;2.03;;
74939;SDS011;63505;45.226;37.908;2023-05-16T08:21:53;5.18;;;3.08;;
74939;SDS011;63505;45.226;37.908;2023-05-16T08:24:19;4.03;;;2.33;;
74939;SDS011;63505;45.226;37.908;2023-05-16T08:26:45;8.82;;;2.53;;
74939;SDS011;63505;45.226;37.908;2023-05-16T08:29:11;4.25;;;2.50;;
74939;SDS011;63505;45.226;37.908;2023-05-16T08:31:37;3.22;;;1.92;;
74939;SDS011;63505;45.226;37.908;2023-05-16T08:34:03;4.88;;;2.30;;
74939;SDS011;63505;45.226;37.908;2023-05-16T08:36:30;12.15;;;2.58;;
74939;SDS011;63505;45.226;37.908;2023-05-16T08:38:59;7.47;;;2.85;;
74939;SDS011;63505;45.226;37.908;2023-05-16T08:41:24;8.93;;;2.50;;
74939;SDS011;63505;45.226;37.908;2023-05-16T08:43:51;6.88;;;2.35;;
74939;SDS011;63505;45.226;37.908;2023-05-16T08:46:17;7.93;;;2.03;;
74939;SDS011;63505;45.226;37.908;2023-05-16T08:48:46;5.88;;;2.20;;
74939;SDS011;63505;45.226;37.908;2023-05-16T08:51:19;4.07;;;2.22;;
74939;SDS011;63505;45.226;37.908;2023-05-16T08:53:49;9.48;;;3.80;;
74939;SDS011;63505;45.226;37.908;2023-05-16T08:56:21;12.38;;;3.60;;
74939;SDS011;63505;45.226;37.908;2023-05-16T08:58:49;9.40;;;3.13;;
74939;SDS011;63505;45.226;37.908;2023-05-16T09:01:21;4.35;;;2.40;;
74939;SDS011;63505;45.226;37.908;2023-05-16T09:03:48;6.07;;;2.72;;
74939;SDS011;63505;45.226;37.908;2023-05-16T09:06:15;6.85;;;2.80;;
74939;SDS011;63505;45.226;37.908;2023-05-16T09:08:41;6.07;;;2.97;;
74939;SDS011;63505;45.226;37.908;2023-05-16T09:11:08;3.90;;;2.38;;
74939;SDS011;63505;45.226;37.908;2023-05-16T09:13:33;5.20;;;2.88;;
74939;SDS011;63505;45.226;37.908;2023-05-16T09:16:15;3.95;;;2.17;;
74939;SDS011;63505;45.226;37.908;2023-05-16T09:18:43;33.08;;;4.45;;
74939;SDS011;63505;45.226;37.908;2023-05-16T09:21:11;5.90;;;2.83;;
74939;SDS011;63505;45.226;37.908;2023-05-16T09:23:38;6.32;;;3.13;;
74939;SDS011;63505;45.226;37.908;2023-05-16T09:26:06;7.07;;;3.10;;
74939;SDS011;63505;45.226;37.908;2023-05-16T09:28:32;8.23;;;2.78;;
74939;SDS011;63505;45.226;37.908;2023-05-16T09:31:01;6.47;;;3.08;;
74939;SDS011;63505;45.226;37.908;2023-05-16T09:33:27;8.30;;;3.33;;
74939;SDS011;63505;45.226;37.908;2023-05-16T09:35:54;8.88;;;4.13;;
74939;SDS011;63505;45.226;37.908;2023-05-16T09:38:21;12.77;;;4.07;;
74939;SDS011;63505;45.226;37.908;2023-05-16T09:40:49;7.88;;;3.88;;
74939;SDS011;63505;45.226;37.908;2023-05-16T09:43:15;6.43;;;3.00;;
74939;SDS011;63505;45.226;37.908;2023-05-16T09:45:44;5.65;;;3.35;;
74939;SDS011;63505;45.226;37.908;2023-05-16T09:48:12;15.90;;;3.80;;
74939;SDS011;63505;45.226;37.908;2023-05-16T09:50:39;6.50;;;3.10;;
74939;SDS011;63505;45.226;37.908;2023-05-16T09:53:11;10.45;;;3.70;;
74939;SDS011;63505;45.226;37.908;2023-05-16T09:55:38;7.18;;;3.45;;
74939;SDS011;63505;45.226;37.908;2023-05-16T09:58:03;6.57;;;3.42;;
74939;SDS011;63505;45.226;37.908;2023-05-16T10:00:30;5.65;;;3.50;;
74939;SDS011;63505;45.226;37.908;2023-05-16T10:05:27;5.45;;;2.80;;
74939;SDS011;63505;45.226;37.908;2023-05-16T10:07:55;5.25;;;2.42;;
74939;SDS011;63505;45.226;37.908;2023-05-16T10:10:22;8.98;;;3.55;;
74939;SDS011;63505;45.226;37.908;2023-05-16T10:12:50;7.07;;;3.10;;
74939;SDS011;63505;45.226;37.908;2023-05-16T10:15:16;5.10;;;3.10;;
74939;SDS011;63505;45.226;37.908;2023-05-16T10:17:44;5.00;;;3.28;;
74939;SDS011;63505;45.226;37.908;2023-05-16T10:20:15;5.32;;;2.92;;
74939;SDS011;63505;45.226;37.908;2023-05-16T10:22:42;8.85;;;3.42;;
74939;SDS011;63505;45.226;37.908;2023-05-16T10:25:14;5.30;;;2.85;;
74939;SDS011;63505;45.226;37.908;2023-05-16T10:27:46;5.20;;;2.97;;
74939;SDS011;63505;45.226;37.908;2023-05-16T10:30:12;5.72;;;3.30;;
74939;SDS011;63505;45.226;37.908;2023-05-16T10:32:39;6.78;;;2.60;;
74939;SDS011;63505;45.226;37.908;2023-05-16T10:35:06;5.32;;;2.40;;
74939;SDS011;63505;45.226;37.908;2023-05-16T10:37:33;5.10;;;2.30;;
74939;SDS011;63505;45.226;37.908;2023-05-16T10:40:00;6.18;;;2.42;;
74939;SDS011;63505;45.226;37.908;2023-05-16T10:42:33;7.88;;;1.95;;
74939;SDS011;63505;45.226;37.908;2023-05-16T10:45:08;3.83;;;2.15;;
74939;SDS011;63505;45.226;37.908;2023-05-16T10:47:49;3.95;;;1.95;;
74939;SDS011;63505;45.226;37.908;2023-05-16T10:50:29;5.95;;;1.98;;
74939;SDS011;63505;45.226;37.908;2023-05-16T11:04:04;9.27;;;4.25;;
74939;SDS011;63505;45.226;37.908;2023-05-16T11:11:53;14.10;;;5.50;;
74939;SDS011;63505;45.226;37.908;2023-05-16T11:17:09;9.65;;;3.00;;
74939;SDS011;63505;45.226;37.908;2023-05-16T11:19:49;6.03;;;3.53;;
74939;SDS011;63505;45.226;37.908;2023-05-16T11:22:25;7.05;;;2.88;;
74939;SDS011;63505;45.226;37.908;2023-05-16T11:24:54;6.10;;;2.30;;
74939;SDS011;63505;45.226;37.908;2023-05-16T11:27:21;6.95;;;2.63;;
74939;SDS011;63505;45.226;37.908;2023-05-16T11:29:50;4.85;;;2.25;;
74939;SDS011;63505;45.226;37.908;2023-05-16T11:32:20;6.20;;;3.25;;
74939;SDS011;63505;45.226;37.908;2023-05-16T11:34:47;4.97;;;2.00;;
74939;SDS011;63505;45.226;37.908;2023-05-16T11:37:15;9.18;;;2.55;;
74939;SDS011;63505;45.226;37.908;2023-05-16T11:39:41;5.03;;;2.35;;
74939;SDS011;63505;45.226;37.908;2023-05-16T11:42:07;4.55;;;2.60;;
74939;SDS011;63505;45.226;37.908;2023-05-16T11:44:34;4.85;;;2.17;;
74939;SDS011;63505;45.226;37.908;2023-05-16T11:47:00;4.60;;;2.40;;
74939;SDS011;63505;45.226;37.908;2023-05-16T11:49:27;7.30;;;2.33;;
74939;SDS011;63505;45.226;37.908;2023-05-16T11:51:53;6.95;;;2.45;;
74939;SDS011;63505;45.226;37.908;2023-05-16T11:54:20;5.50;;;2.92;;
74939;SDS011;63505;45.226;37.908;2023-05-16T11:56:47;4.15;;;2.67;;
74939;SDS011;63505;45.226;37.908;2023-05-16T11:59:13;5.22;;;2.42;;
74939;SDS011;63505;45.226;37.908;2023-05-16T12:01:40;7.68;;;2.55;;
74939;SDS011;63505;45.226;37.908;2023-05-16T12:04:07;5.25;;;2.58;;
74939;SDS011;63505;45.226;37.908;2023-05-16T12:06:37;4.78;;;3.20;;
74939;SDS011;63505;45.226;37.908;2023-05-16T12:09:03;4.80;;;2.15;;
74939;SDS011;63505;45.226;37.908;2023-05-16T12:11:38;6.00;;;2.47;;
74939;SDS011;63505;45.226;37.908;2023-05-16T12:14:06;4.43;;;2.17;;
74939;SDS011;63505;45.226;37.908;2023-05-16T12:16:33;6.18;;;2.75;;
74939;SDS011;63505;45.226;37.908;2023-05-16T12:19:01;4.00;;;2.50;;
74939;SDS011;63505;45.226;37.908;2023-05-16T12:21:29;4.75;;;2.70;;
74939;SDS011;63505;45.226;37.908;2023-05-16T12:23:56;6.47;;;3.00;;
74939;SDS011;63505;45.226;37.908;2023-05-16T12:26:25;8.55;;;2.92;;
74939;SDS011;63505;45.226;37.908;2023-05-16T12:29:01;4.13;;;2.60;;
74939;SDS011;63505;45.226;37.908;2023-05-16T12:31:39;7.13;;;2.45;;
74939;SDS011;63505;45.226;37.908;2023-05-16T12:34:18;7.10;;;2.30;;
74939;SDS011;63505;45.226;37.908;2023-05-16T12:36:51;7.43;;;2.60;;
74939;SDS011;63505;45.226;37.908;2023-05-16T12:39:18;4.97;;;2.58;;
74939;SDS011;63505;45.226;37.908;2023-05-16T12:41:44;7.85;;;2.33;;
74939;SDS011;63505;45.226;37.908;2023-05-16T12:44:14;7.85;;;3.67;;
74939;SDS011;63505;45.226;37.908;2023-05-16T12:46:42;7.78;;;3.75;;
74939;SDS011;63505;45.226;37.908;2023-05-16T12:49:09;8.55;;;3.85;;
74939;SDS011;63505;45.226;37.908;2023-05-16T12:51:36;8.68;;;3.67;;
74939;SDS011;63505;45.226;37.908;2023-05-16T12:54:08;9.80;;;4.18;;
74939;SDS011;63505;45.226;37.908;2023-05-16T12:56:39;10.45;;;4.13;;
74939;SDS011;63505;45.226;37.908;2023-05-16T12:59:06;10.90;;;4.00;;
74939;SDS011;63505;45.226;37.908;2023-05-16T13:01:33;7.38;;;3.45;;
74939;SDS011;63505;45.226;37.908;2023-05-16T13:04:00;5.00;;;3.13;;
74939;SDS011;63505;45.226;37.908;2023-05-16T13:06:26;6.90;;;3.47;;
74939;SDS011;63505;45.226;37.908;2023-05-16T13:08:52;4.28;;;2.60;;
74939;SDS011;63505;45.226;37.908;2023-05-16T13:11:19;4.20;;;2.42;;
74939;SDS011;63505;45.226;37.908;2023-05-16T13:13:45;5.43;;;2.30;;
74939;SDS011;63505;45.226;37.908;2023-05-16T13:16:11;4.63;;;2.53;;
74939;SDS011;63505;45.226;37.908;2023-05-16T13:18:37;6.05;;;2.60;;
74939;SDS011;63505;45.226;37.908;2023-05-16T13:21:03;4.47;;;2.22;;
74939;SDS011;63505;45.226;37.908;2023-05-16T13:23:29;5.07;;;2.28;;
74939;SDS011;63505;45.226;37.908;2023-05-16T13:25:55;8.20;;;3.05;;
74939;SDS011;63505;45.226;37.908;2023-05-16T13:28:21;7.32;;;2.67;;
74939;SDS011;63505;45.226;37.908;2023-05-16T13:30:47;3.50;;;2.05;;
74939;SDS011;63505;45.226;37.908;2023-05-16T13:33:12;6.88;;;2.67;;
74939;SDS011;63505;45.226;37.908;2023-05-16T13:35:38;5.10;;;3.10;;
74939;SDS011;63505;45.226;37.908;2023-05-16T13:38:04;7.22;;;2.47;;
74939;SDS011;63505;45.226;37.908;2023-05-16T13:40:30;7.00;;;2.90;;
74939;SDS011;63505;45.226;37.908;2023-05-16T13:42:57;4.95;;;2.50;;
74939;SDS011;63505;45.226;37.908;2023-05-16T13:45:23;6.85;;;3.92;;
74939;SDS011;63505;45.226;37.908;2023-05-16T13:47:48;10.60;;;2.90;;
74939;SDS011;63505;45.226;37.908;2023-05-16T13:50:14;8.18;;;3.38;;
74939;SDS011;63505;45.226;37.908;2023-05-16T13:52:40;6.55;;;2.67;;
74939;SDS011;63505;45.226;37.908;2023-05-16T13:55:06;4.43;;;2.22;;
74939;SDS011;63505;45.226;37.908;2023-05-16T13:57:33;6.85;;;2.50;;
74939;SDS011;63505;45.226;37.908;2023-05-16T14:00:00;55.40;;;5.88;;
74939;SDS011;63505;45.226;37.908;2023-05-16T14:02:40;5.68;;;2.70;;
74939;SDS011;63505;45.226;37.908;2023-05-16T14:05:07;3.75;;;2.10;;
74939;SDS011;63505;45.226;37.908;2023-05-16T14:07:34;10.68;;;2.67;;
74939;SDS011;63505;45.226;37.908;2023-05-16T14:10:00;5.57;;;2.20;;
74939;SDS011;63505;45.226;37.908;2023-05-16T14:12:26;4.60;;;2.15;;
74939;SDS011;63505;45.226;37.908;2023-05-16T14:14:52;5.00;;;2.22;;
74939;SDS011;63505;45.226;37.908;2023-05-16T14:17:19;5.43;;;2.80;;
74939;SDS011;63505;45.226;37.908;2023-05-16T14:19:45;4.15;;;2.03;;
74939;SDS011;63505;45.226;37.908;2023-05-16T14:22:11;5.63;;;2.50;;
74939;SDS011;63505;45.226;37.908;2023-05-16T14:24:36;8.95;;;2.50;;
74939;SDS011;63505;45.226;37.908;2023-05-16T14:27:02;4.63;;;2.95;;
74939;SDS011;63505;45.226;37.908;2023-05-16T14:29:28;6.97;;;2.53;;
74939;SDS011;63505;45.226;37.908;2023-05-16T14:31:54;4.07;;;2.65;;
74939;SDS011;63505;45.226;37.908;2023-05-16T14:34:21;5.55;;;1.98;;
74939;SDS011;63505;45.226;37.908;2023-05-16T14:36:47;10.60;;;3.25;;
74939;SDS011;63505;45.226;37.908;2023-05-16T14:39:13;5.80;;;2.08;;
74939;SDS011;63505;45.226;37.908;2023-05-16T14:41:39;12.20;;;2.65;;
74939;SDS011;63505;45.226;37.908;2023-05-16T14:44:05;7.25;;;3.33;;
74939;SDS011;63505;45.226;37.908;2023-05-16T14:46:31;4.82;;;2.13;;
74939;SDS011;63505;45.226;37.908;2023-05-16T14:48:58;6.30;;;2.08;;
74939;SDS011;63505;45.226;37.908;2023-05-16T14:51:24;3.25;;;1.88;;
74939;SDS011;63505;45.226;37.908;2023-05-16T14:53:50;5.15;;;2.10;;
74939;SDS011;63505;45.226;37.908;2023-05-16T14:56:15;4.63;;;2.42;;
74939;SDS011;63505;45.226;37.908;2023-05-16T14:58:41;14.13;;;2.50;;
74939;SDS011;63505;45.226;37.908;2023-05-16T15:01:07;5.68;;;2.28;;
74939;SDS011;63505;45.226;37.908;2023-05-16T15:03:33;7.95;;;2.20;;
74939;SDS011;63505;45.226;37.908;2023-05-16T15:06:00;4.45;;;2.10;;
74939;SDS011;63505;45.226;37.908;2023-05-16T15:08:26;4.65;;;2.60;;